sensor_id;sensor_type;location;lat;lon;timestamp;P1;durP1;ratioP1;P2;durP2;ratioP2
15502;SDS011;7853;52.186;5.948;2023-04-19T00:03:26;7.19;;;4.86;;
15502;SDS011;7853;52.186;5.948;2023-04-19T00:03:26;7.11;;;4.71;;
15502;SDS011;7853;52.186;5.948;2023-04-19T00:04:13;7.38;;;4.95;;
15502;SDS011;7853;52.186;5.948;2023-04-19T00:04:59;7.30;;;4.96;;
15502;SDS011;7853;52.186;5.948;2023-04-19T00:05:46;6.39;;;4.75;;
15502;SDS011;7853;52.186;5.948;2023-04-19T00:06:39;7.05;;;4.98;;
15502;SDS011;7853;52.186;5.948;2023-04-19T00:07:36;6.57;;;4.94;;
15502;SDS011;7853;52.186;5.948;2023-04-19T00:08:34;6.77;;;5.19;;
15502;SDS011;7853;52.186;5.948;2023-04-19T00:09:33;7.42;;;4.93;;
15502;SDS011;7853;52.186;5.948;2023-04-19T00:10:33;7.49;;;5.07;;
15502;SDS011;7853;52.186;5.948;2023-04-19T00:11:33;6.60;;;4.86;;
15502;SDS011;7853;52.186;5.948;2023-04-19T00:12:33;6.80;;;5.00;;
15502;SDS011;7853;52.186;5.948;2023-04-19T00:13:33;6.89;;;5.05;;
15502;SDS011;7853;52.186;5.948;2023-04-19T00:14:33;7.53;;;5.36;;
15502;SDS011;7853;52.186;5.948;2023-04-19T00:15:33;6.75;;;5.06;;
15502;SDS011;7853;52.186;5.948;2023-04-19T00:16:33;7.63;;;5.21;;
15502;SDS011;7853;52.186;5.948;2023-04-19T00:17:33;6.59;;;4.89;;
15502;SDS011;7853;52.186;5.948;2023-04-19T00:18:33;6.82;;;5.23;;
15502;SDS011;7853;52.186;5.948;2023-04-19T00:19:33;6.07;;;4.79;;
15502;SDS011;7853;52.186;5.948;2023-04-19T00:20:33;6.97;;;5.00;;
15502;SDS011;7853;52.186;5.948;2023-04-19T00:21:33;8.12;;;5.18;;
15502;SDS011;7853;52.186;5.948;2023-04-19T00:22:33;8.03;;;5.39;;
15502;SDS011;7853;52.186;5.948;2023-04-19T00:23:33;7.24;;;5.33;;
15502;SDS011;7853;52.186;5.948;2023-04-19T00:24:33;7.37;;;5.20;;
15502;SDS011;7853;52.186;5.948;2023-04-19T00:25:33;7.00;;;5.13;;
15502;SDS011;7853;52.186;5.948;2023-04-19T00:26:33;7.30;;;5.06;;
15502;SDS011;7853;52.186;5.948;2023-04-19T00:27:33;10.11;;;4.93;;
15502;SDS011;7853;52.186;5.948;2023-04-19T00:28:33;7.58;;;5.20;;
15502;SDS011;7853;52.186;5.948;2023-04-19T00:29:33;7.71;;;5.21;;
15502;SDS011;7853;52.186;5.948;2023-04-19T00:30:34;7.24;;;5.38;;
15502;SDS011;7853;52.186;5.948;2023-04-19T00:31:34;7.66;;;5.53;;
15502;SDS011;7853;52.186;5.948;2023-04-19T00:32:34;8.39;;;5.54;;
15502;SDS011;7853;52.186;5.948;2023-04-19T00:33:34;6.81;;;5.16;;
15502;SDS011;7853;52.186;5.948;2023-04-19T00:34:34;8.98;;;5.26;;
15502;SDS011;7853;52.186;5.948;2023-04-19T00:35:34;7.90;;;4.85;;
15502;SDS011;7853;52.186;5.948;2023-04-19T00:36:34;7.95;;;5.33;;
15502;SDS011;7853;52.186;5.948;2023-04-19T00:37:34;7.83;;;5.05;;
15502;SDS011;7853;52.186;5.948;2023-04-19T00:38:34;6.69;;;5.11;;
15502;SDS011;7853;52.186;5.948;2023-04-19T00:39:34;7.58;;;5.42;;
15502;SDS011;7853;52.186;5.948;2023-04-19T00:40:34;7.76;;;5.38;;
15502;SDS011;7853;52.186;5.948;2023-04-19T00:41:34;7.47;;;5.42;;
15502;SDS011;7853;52.186;5.948;2023-04-19T00:42:34;7.19;;;5.45;;
15502;SDS011;7853;52.186;5.948;2023-04-19T00:43:34;8.42;;;5.52;;
15502;SDS011;7853;52.186;5.948;2023-04-19T00:44:34;7.55;;;5.66;;
15502;SDS011;7853;52.186;5.948;2023-04-19T00:45:34;7.57;;;5.46;;
15502;SDS011;7853;52.186;5.948;2023-04-19T00:46:35;6.64;;;5.20;;
15502;SDS011;7853;52.186;5.948;2023-04-19T00:47:34;6.58;;;4.99;;
15502;SDS011;7853;52.186;5.948;2023-04-19T00:48:34;7.99;;;5.30;;
15502;SDS011;7853;52.186;5.948;2023-04-19T00:49:34;7.62;;;5.54;;
15502;SDS011;7853;52.186;5.948;2023-04-19T00:50:34;7.52;;;5.30;;
15502;SDS011;7853;52.186;5.948;2023-04-19T00:51:34;8.68;;;5.42;;
15502;SDS011;7853;52.186;5.948;2023-04-19T00:52:34;7.55;;;5.46;;
15502;SDS011;7853;52.186;5.948;2023-04-19T00:53:34;8.07;;;5.69;;
15502;SDS011;7853;52.186;5.948;2023-04-19T00:54:34;7.99;;;5.26;;
15502;SDS011;7853;52.186;5.948;2023-04-19T00:55:34;6.19;;;4.66;;
15502;SDS011;7853;52.186;5.948;2023-04-19T00:56:34;7.16;;;5.17;;
15502;SDS011;7853;52.186;5.948;2023-04-19T00:57:34;7.86;;;5.41;;
15502;SDS011;7853;52.186;5.948;2023-04-19T00:58:34;7.20;;;5.07;;
15502;SDS011;7853;52.186;5.948;2023-04-19T00:59:34;7.77;;;5.67;;
15502;SDS011;7853;52.186;5.948;2023-04-19T01:00:35;7.96;;;5.48;;
15502;SDS011;7853;52.186;5.948;2023-04-19T01:01:34;7.48;;;5.15;;
15502;SDS011;7853;52.186;5.948;2023-04-19T01:02:34;7.58;;;5.22;;
15502;SDS011;7853;52.186;5.948;2023-04-19T01:03:34;7.66;;;5.33;;
15502;SDS011;7853;52.186;5.948;2023-04-19T01:04:34;7.58;;;5.52;;
15502;SDS011;7853;52.186;5.948;2023-04-19T01:05:34;8.03;;;5.67;;
15502;SDS011;7853;52.186;5.948;2023-04-19T01:06:35;7.39;;;5.60;;
15502;SDS011;7853;52.186;5.948;2023-04-19T01:07:34;7.57;;;5.50;;
15502;SDS011;7853;52.186;5.948;2023-04-19T01:08:34;8.16;;;5.69;;
15502;SDS011;7853;52.186;5.948;2023-04-19T01:09:36;7.70;;;5.72;;
15502;SDS011;7853;52.186;5.948;2023-04-19T01:10:34;8.82;;;5.82;;
15502;SDS011;7853;52.186;5.948;2023-04-19T01:11:34;6.83;;;5.44;;
15502;SDS011;7853;52.186;5.948;2023-04-19T01:12:34;7.78;;;5.42;;
15502;SDS011;7853;52.186;5.948;2023-04-19T01:13:34;7.01;;;5.41;;
15502;SDS011;7853;52.186;5.948;2023-04-19T01:14:34;7.93;;;5.73;;
15502;SDS011;7853;52.186;5.948;2023-04-19T01:15:35;7.76;;;5.67;;
15502;SDS011;7853;52.186;5.948;2023-04-19T01:16:34;8.92;;;5.96;;
15502;SDS011;7853;52.186;5.948;2023-04-19T01:17:34;7.38;;;5.76;;
15502;SDS011;7853;52.186;5.948;2023-04-19T01:18:34;8.65;;;5.99;;
15502;SDS011;7853;52.186;5.948;2023-04-19T01:19:34;9.01;;;5.95;;
15502;SDS011;7853;52.186;5.948;2023-04-19T01:20:34;7.51;;;5.51;;
15502;SDS011;7853;52.186;5.948;2023-04-19T01:21:35;8.84;;;6.46;;
15502;SDS011;7853;52.186;5.948;2023-04-19T01:22:34;8.14;;;5.81;;
15502;SDS011;7853;52.186;5.948;2023-04-19T01:23:35;8.25;;;5.55;;
15502;SDS011;7853;52.186;5.948;2023-04-19T01:24:34;7.80;;;5.98;;
15502;SDS011;7853;52.186;5.948;2023-04-19T01:25:34;7.16;;;5.80;;
15502;SDS011;7853;52.186;5.948;2023-04-19T01:26:34;7.77;;;5.51;;
15502;SDS011;7853;52.186;5.948;2023-04-19T01:27:34;7.59;;;5.66;;
15502;SDS011;7853;52.186;5.948;2023-04-19T01:28:35;7.46;;;5.56;;
15502;SDS011;7853;52.186;5.948;2023-04-19T01:29:34;8.06;;;5.79;;
15502;SDS011;7853;52.186;5.948;2023-04-19T01:30:35;8.79;;;5.99;;
15502;SDS011;7853;52.186;5.948;2023-04-19T01:31:34;7.69;;;5.68;;
15502;SDS011;7853;52.186;5.948;2023-04-19T01:32:34;8.27;;;6.02;;
15502;SDS011;7853;52.186;5.948;2023-04-19T01:33:34;8.74;;;6.17;;
15502;SDS011;7853;52.186;5.948;2023-04-19T01:34:34;8.24;;;5.59;;
15502;SDS011;7853;52.186;5.948;2023-04-19T01:35:34;8.68;;;5.83;;
15502;SDS011;7853;52.186;5.948;2023-04-19T01:36:34;8.37;;;5.62;;
15502;SDS011;7853;52.186;5.948;2023-04-19T01:37:34;9.37;;;6.00;;
15502;SDS011;7853;52.186;5.948;2023-04-19T01:38:35;8.44;;;5.69;;
15502;SDS011;7853;52.186;5.948;2023-04-19T01:39:34;7.35;;;5.51;;
15502;SDS011;7853;52.186;5.948;2023-04-19T01:40:34;9.93;;;6.19;;
15502;SDS011;7853;52.186;5.948;2023-04-19T01:41:35;8.11;;;5.65;;
15502;SDS011;7853;52.186;5.948;2023-04-19T01:42:34;7.28;;;5.42;;
15502;SDS011;7853;52.186;5.948;2023-04-19T01:43:34;9.37;;;5.86;;
15502;SDS011;7853;52.186;5.948;2023-04-19T01:44:34;7.98;;;5.80;;
15502;SDS011;7853;52.186;5.948;2023-04-19T01:45:34;8.92;;;5.78;;
15502;SDS011;7853;52.186;5.948;2023-04-19T01:46:34;8.18;;;6.00;;
15502;SDS011;7853;52.186;5.948;2023-04-19T01:47:35;7.98;;;5.71;;
15502;SDS011;7853;52.186;5.948;2023-04-19T01:48:34;7.94;;;5.71;;
15502;SDS011;7853;52.186;5.948;2023-04-19T01:49:34;8.63;;;5.89;;
15502;SDS011;7853;52.186;5.948;2023-04-19T01:50:34;7.62;;;5.58;;
15502;SDS011;7853;52.186;5.948;2023-04-19T01:51:35;7.62;;;5.36;;
15502;SDS011;7853;52.186;5.948;2023-04-19T01:52:35;7.78;;;5.47;;
15502;SDS011;7853;52.186;5.948;2023-04-19T01:53:34;7.73;;;5.49;;
15502;SDS011;7853;52.186;5.948;2023-04-19T01:54:34;7.34;;;5.40;;
15502;SDS011;7853;52.186;5.948;2023-04-19T01:55:34;7.65;;;5.72;;
15502;SDS011;7853;52.186;5.948;2023-04-19T01:56:34;9.72;;;5.46;;
15502;SDS011;7853;52.186;5.948;2023-04-19T01:57:34;7.30;;;5.46;;
15502;SDS011;7853;52.186;5.948;2023-04-19T01:58:35;7.57;;;5.78;;
15502;SDS011;7853;52.186;5.948;2023-04-19T01:59:34;7.56;;;5.58;;
15502;SDS011;7853;52.186;5.948;2023-04-19T02:00:35;9.05;;;5.62;;
15502;SDS011;7853;52.186;5.948;2023-04-19T02:01:35;8.67;;;5.51;;
15502;SDS011;7853;52.186;5.948;2023-04-19T02:02:35;7.72;;;5.27;;
15502;SDS011;7853;52.186;5.948;2023-04-19T02:03:34;7.80;;;5.47;;
15502;SDS011;7853;52.186;5.948;2023-04-19T02:04:34;7.31;;;5.24;;
15502;SDS011;7853;52.186;5.948;2023-04-19T02:05:35;8.12;;;4.87;;
15502;SDS011;7853;52.186;5.948;2023-04-19T02:06:34;7.89;;;5.04;;
15502;SDS011;7853;52.186;5.948;2023-04-19T02:07:34;7.46;;;5.33;;
15502;SDS011;7853;52.186;5.948;2023-04-19T02:08:34;7.76;;;5.47;;
15502;SDS011;7853;52.186;5.948;2023-04-19T02:09:35;8.23;;;5.33;;
15502;SDS011;7853;52.186;5.948;2023-04-19T02:10:35;9.51;;;5.40;;
15502;SDS011;7853;52.186;5.948;2023-04-19T02:11:34;7.12;;;4.92;;
15502;SDS011;7853;52.186;5.948;2023-04-19T02:12:35;6.40;;;4.67;;
15502;SDS011;7853;52.186;5.948;2023-04-19T02:13:35;8.05;;;4.97;;
15502;SDS011;7853;52.186;5.948;2023-04-19T02:14:35;7.40;;;4.85;;
15502;SDS011;7853;52.186;5.948;2023-04-19T02:15:35;8.88;;;5.01;;
15502;SDS011;7853;52.186;5.948;2023-04-19T02:16:35;8.57;;;5.27;;
15502;SDS011;7853;52.186;5.948;2023-04-19T02:17:35;8.73;;;5.31;;
15502;SDS011;7853;52.186;5.948;2023-04-19T02:18:35;7.67;;;4.99;;
15502;SDS011;7853;52.186;5.948;2023-04-19T02:19:34;6.79;;;4.97;;
15502;SDS011;7853;52.186;5.948;2023-04-19T02:20:34;7.25;;;5.13;;
15502;SDS011;7853;52.186;5.948;2023-04-19T02:21:35;7.17;;;5.19;;
15502;SDS011;7853;52.186;5.948;2023-04-19T02:22:35;7.98;;;5.24;;
15502;SDS011;7853;52.186;5.948;2023-04-19T02:23:35;8.07;;;5.30;;
15502;SDS011;7853;52.186;5.948;2023-04-19T02:24:34;7.47;;;5.18;;
15502;SDS011;7853;52.186;5.948;2023-04-19T02:25:34;6.71;;;4.71;;
15502;SDS011;7853;52.186;5.948;2023-04-19T02:26:35;7.61;;;5.16;;
15502;SDS011;7853;52.186;5.948;2023-04-19T02:27:34;7.60;;;5.19;;
15502;SDS011;7853;52.186;5.948;2023-04-19T02:28:34;7.17;;;5.35;;
15502;SDS011;7853;52.186;5.948;2023-04-19T02:29:34;7.19;;;5.03;;
15502;SDS011;7853;52.186;5.948;2023-04-19T02:30:35;6.88;;;5.16;;
15502;SDS011;7853;52.186;5.948;2023-04-19T02:31:35;6.63;;;5.27;;
15502;SDS011;7853;52.186;5.948;2023-04-19T02:32:34;7.87;;;5.29;;
15502;SDS011;7853;52.186;5.948;2023-04-19T02:33:35;7.27;;;5.12;;
15502;SDS011;7853;52.186;5.948;2023-04-19T02:34:34;7.64;;;4.97;;
15502;SDS011;7853;52.186;5.948;2023-04-19T02:35:35;7.38;;;5.11;;
15502;SDS011;7853;52.186;5.948;2023-04-19T02:36:34;7.44;;;4.83;;
15502;SDS011;7853;52.186;5.948;2023-04-19T02:37:35;6.95;;;4.66;;
15502;SDS011;7853;52.186;5.948;2023-04-19T02:38:35;7.67;;;4.85;;
15502;SDS011;7853;52.186;5.948;2023-04-19T02:39:35;6.25;;;4.75;;
15502;SDS011;7853;52.186;5.948;2023-04-19T02:40:34;7.83;;;5.37;;
15502;SDS011;7853;52.186;5.948;2023-04-19T02:41:35;8.13;;;5.31;;
15502;SDS011;7853;52.186;5.948;2023-04-19T02:42:35;5.95;;;4.61;;
15502;SDS011;7853;52.186;5.948;2023-04-19T02:43:35;6.03;;;4.83;;
15502;SDS011;7853;52.186;5.948;2023-04-19T02:44:34;7.60;;;4.68;;
15502;SDS011;7853;52.186;5.948;2023-04-19T02:45:35;6.96;;;4.70;;
15502;SDS011;7853;52.186;5.948;2023-04-19T02:46:35;6.79;;;4.91;;
15502;SDS011;7853;52.186;5.948;2023-04-19T02:47:35;7.35;;;5.11;;
15502;SDS011;7853;52.186;5.948;2023-04-19T02:48:34;6.88;;;4.96;;
15502;SDS011;7853;52.186;5.948;2023-04-19T02:49:35;6.59;;;5.06;;
15502;SDS011;7853;52.186;5.948;2023-04-19T02:50:35;6.62;;;4.77;;
15502;SDS011;7853;52.186;5.948;2023-04-19T02:51:35;7.36;;;5.12;;
15502;SDS011;7853;52.186;5.948;2023-04-19T02:52:35;7.42;;;5.11;;
15502;SDS011;7853;52.186;5.948;2023-04-19T02:53:35;6.35;;;4.77;;
15502;SDS011;7853;52.186;5.948;2023-04-19T02:54:35;6.48;;;5.11;;
15502;SDS011;7853;52.186;5.948;2023-04-19T02:55:34;7.15;;;4.83;;
15502;SDS011;7853;52.186;5.948;2023-04-19T02:56:35;6.76;;;4.94;;
15502;SDS011;7853;52.186;5.948;2023-04-19T02:57:35;5.77;;;4.64;;
15502;SDS011;7853;52.186;5.948;2023-04-19T02:58:35;6.77;;;4.85;;
15502;SDS011;7853;52.186;5.948;2023-04-19T02:59:37;6.87;;;4.92;;
15502;SDS011;7853;52.186;5.948;2023-04-19T03:00:33;6.65;;;4.34;;
15502;SDS011;7853;52.186;5.948;2023-04-19T03:01:34;7.18;;;4.22;;
15502;SDS011;7853;52.186;5.948;2023-04-19T03:02:34;7.06;;;4.41;;
15502;SDS011;7853;52.186;5.948;2023-04-19T03:03:34;6.61;;;4.58;;
15502;SDS011;7853;52.186;5.948;2023-04-19T03:04:34;6.15;;;4.42;;
15502;SDS011;7853;52.186;5.948;2023-04-19T03:05:34;7.48;;;4.80;;
15502;SDS011;7853;52.186;5.948;2023-04-19T03:06:34;6.42;;;4.67;;
15502;SDS011;7853;52.186;5.948;2023-04-19T03:07:34;6.45;;;4.37;;
15502;SDS011;7853;52.186;5.948;2023-04-19T03:08:34;6.07;;;4.51;;
15502;SDS011;7853;52.186;5.948;2023-04-19T03:09:35;6.72;;;4.45;;
15502;SDS011;7853;52.186;5.948;2023-04-19T03:10:34;6.76;;;4.62;;
15502;SDS011;7853;52.186;5.948;2023-04-19T03:11:34;7.14;;;4.53;;
15502;SDS011;7853;52.186;5.948;2023-04-19T03:12:34;8.44;;;4.97;;
15502;SDS011;7853;52.186;5.948;2023-04-19T03:13:35;7.74;;;4.63;;
15502;SDS011;7853;52.186;5.948;2023-04-19T03:14:35;7.59;;;4.91;;
15502;SDS011;7853;52.186;5.948;2023-04-19T03:15:35;6.77;;;4.61;;
15502;SDS011;7853;52.186;5.948;2023-04-19T03:16:34;6.52;;;4.73;;
15502;SDS011;7853;52.186;5.948;2023-04-19T03:17:35;5.97;;;4.18;;
15502;SDS011;7853;52.186;5.948;2023-04-19T03:18:35;6.91;;;4.53;;
15502;SDS011;7853;52.186;5.948;2023-04-19T03:19:35;5.96;;;4.56;;
15502;SDS011;7853;52.186;5.948;2023-04-19T03:20:34;6.47;;;4.38;;
15502;SDS011;7853;52.186;5.948;2023-04-19T03:21:35;6.11;;;4.64;;
15502;SDS011;7853;52.186;5.948;2023-04-19T03:22:37;6.37;;;4.52;;
15502;SDS011;7853;52.186;5.948;2023-04-19T03:23:33;6.56;;;4.83;;
15502;SDS011;7853;52.186;5.948;2023-04-19T03:24:34;6.43;;;4.25;;
15502;SDS011;7853;52.186;5.948;2023-04-19T03:25:34;7.11;;;4.64;;
15502;SDS011;7853;52.186;5.948;2023-04-19T03:26:34;6.89;;;4.39;;
15502;SDS011;7853;52.186;5.948;2023-04-19T03:27:34;7.08;;;4.76;;
15502;SDS011;7853;52.186;5.948;2023-04-19T03:28:34;6.67;;;4.71;;
15502;SDS011;7853;52.186;5.948;2023-04-19T03:29:35;6.54;;;4.75;;
15502;SDS011;7853;52.186;5.948;2023-04-19T03:30:35;6.92;;;4.63;;
15502;SDS011;7853;52.186;5.948;2023-04-19T03:31:35;6.43;;;4.59;;
15502;SDS011;7853;52.186;5.948;2023-04-19T03:32:34;7.18;;;4.83;;
15502;SDS011;7853;52.186;5.948;2023-04-19T03:33:35;6.52;;;4.66;;
15502;SDS011;7853;52.186;5.948;2023-04-19T03:34:35;7.87;;;5.05;;
15502;SDS011;7853;52.186;5.948;2023-04-19T03:35:35;6.69;;;4.74;;
15502;SDS011;7853;52.186;5.948;2023-04-19T03:36:35;7.85;;;4.90;;
15502;SDS011;7853;52.186;5.948;2023-04-19T03:37:35;6.75;;;4.59;;
15502;SDS011;7853;52.186;5.948;2023-04-19T03:38:35;6.89;;;4.75;;
15502;SDS011;7853;52.186;5.948;2023-04-19T03:39:35;6.98;;;4.66;;
15502;SDS011;7853;52.186;5.948;2023-04-19T03:40:35;7.64;;;5.03;;
15502;SDS011;7853;52.186;5.948;2023-04-19T03:41:35;7.03;;;4.67;;
15502;SDS011;7853;52.186;5.948;2023-04-19T03:42:34;6.97;;;4.78;;
15502;SDS011;7853;52.186;5.948;2023-04-19T03:43:35;6.46;;;4.79;;
15502;SDS011;7853;52.186;5.948;2023-04-19T03:44:35;8.05;;;5.10;;
15502;SDS011;7853;52.186;5.948;2023-04-19T03:45:34;6.59;;;4.97;;
15502;SDS011;7853;52.186;5.948;2023-04-19T03:46:35;6.53;;;4.93;;
15502;SDS011;7853;52.186;5.948;2023-04-19T03:47:35;7.50;;;5.22;;
15502;SDS011;7853;52.186;5.948;2023-04-19T03:48:35;7.41;;;5.07;;
15502;SDS011;7853;52.186;5.948;2023-04-19T03:49:34;7.15;;;4.89;;
15502;SDS011;7853;52.186;5.948;2023-04-19T03:50:35;6.46;;;4.97;;
15502;SDS011;7853;52.186;5.948;2023-04-19T03:51:35;6.21;;;4.62;;
15502;SDS011;7853;52.186;5.948;2023-04-19T03:52:36;6.36;;;4.74;;
15502;SDS011;7853;52.186;5.948;2023-04-19T03:53:34;7.29;;;4.97;;
15502;SDS011;7853;52.186;5.948;2023-04-19T03:54:34;7.03;;;5.09;;
15502;SDS011;7853;52.186;5.948;2023-04-19T03:55:34;7.37;;;5.02;;
15502;SDS011;7853;52.186;5.948;2023-04-19T03:56:34;7.60;;;5.10;;
15502;SDS011;7853;52.186;5.948;2023-04-19T03:57:34;7.18;;;5.05;;
15502;SDS011;7853;52.186;5.948;2023-04-19T03:58:34;6.64;;;4.84;;
15502;SDS011;7853;52.186;5.948;2023-04-19T03:59:34;8.45;;;5.19;;
15502;SDS011;7853;52.186;5.948;2023-04-19T04:00:35;7.80;;;5.29;;
15502;SDS011;7853;52.186;5.948;2023-04-19T04:01:35;7.16;;;5.11;;
15502;SDS011;7853;52.186;5.948;2023-04-19T04:02:37;8.18;;;5.26;;
15502;SDS011;7853;52.186;5.948;2023-04-19T04:03:35;7.87;;;5.41;;
15502;SDS011;7853;52.186;5.948;2023-04-19T04:04:35;6.57;;;4.90;;
15502;SDS011;7853;52.186;5.948;2023-04-19T04:05:35;6.88;;;5.04;;
15502;SDS011;7853;52.186;5.948;2023-04-19T04:06:34;7.42;;;4.86;;
15502;SDS011;7853;52.186;5.948;2023-04-19T04:07:35;6.51;;;4.89;;
15502;SDS011;7853;52.186;5.948;2023-04-19T04:08:35;7.09;;;5.06;;
15502;SDS011;7853;52.186;5.948;2023-04-19T04:09:35;6.96;;;5.02;;
15502;SDS011;7853;52.186;5.948;2023-04-19T04:10:35;6.79;;;4.85;;
15502;SDS011;7853;52.186;5.948;2023-04-19T04:11:35;6.77;;;5.06;;
15502;SDS011;7853;52.186;5.948;2023-04-19T04:12:35;6.44;;;4.74;;
15502;SDS011;7853;52.186;5.948;2023-04-19T04:13:35;6.71;;;4.86;;
15502;SDS011;7853;52.186;5.948;2023-04-19T04:14:34;7.15;;;5.27;;
15502;SDS011;7853;52.186;5.948;2023-04-19T04:15:35;7.06;;;5.04;;
15502;SDS011;7853;52.186;5.948;2023-04-19T04:16:35;7.81;;;5.04;;
15502;SDS011;7853;52.186;5.948;2023-04-19T04:17:35;7.12;;;4.85;;
15502;SDS011;7853;52.186;5.948;2023-04-19T04:18:34;7.71;;;4.88;;
15502;SDS011;7853;52.186;5.948;2023-04-19T04:19:34;7.28;;;5.19;;
15502;SDS011;7853;52.186;5.948;2023-04-19T04:20:34;7.02;;;4.96;;
15502;SDS011;7853;52.186;5.948;2023-04-19T04:21:35;7.48;;;5.27;;
15502;SDS011;7853;52.186;5.948;2023-04-19T04:22:35;6.83;;;4.88;;
15502;SDS011;7853;52.186;5.948;2023-04-19T04:23:35;7.03;;;5.12;;
15502;SDS011;7853;52.186;5.948;2023-04-19T04:24:36;7.39;;;5.23;;
15502;SDS011;7853;52.186;5.948;2023-04-19T04:25:34;6.93;;;5.00;;
15502;SDS011;7853;52.186;5.948;2023-04-19T04:26:34;7.63;;;4.94;;
15502;SDS011;7853;52.186;5.948;2023-04-19T04:27:35;7.08;;;4.97;;
15502;SDS011;7853;52.186;5.948;2023-04-19T04:28:34;6.90;;;5.08;;
15502;SDS011;7853;52.186;5.948;2023-04-19T04:29:35;7.42;;;4.78;;
15502;SDS011;7853;52.186;5.948;2023-04-19T04:30:35;7.19;;;5.04;;
15502;SDS011;7853;52.186;5.948;2023-04-19T04:31:40;7.37;;;5.09;;
15502;SDS011;7853;52.186;5.948;2023-04-19T04:32:33;6.45;;;4.59;;
15502;SDS011;7853;52.186;5.948;2023-04-19T04:33:34;7.12;;;4.65;;
15502;SDS011;7853;52.186;5.948;2023-04-19T04:34:34;6.40;;;4.76;;
15502;SDS011;7853;52.186;5.948;2023-04-19T04:35:34;6.33;;;4.55;;
15502;SDS011;7853;52.186;5.948;2023-04-19T04:36:34;7.38;;;4.91;;
15502;SDS011;7853;52.186;5.948;2023-04-19T04:37:34;6.58;;;4.83;;
15502;SDS011;7853;52.186;5.948;2023-04-19T04:38:35;6.59;;;4.88;;
15502;SDS011;7853;52.186;5.948;2023-04-19T04:39:34;6.28;;;4.67;;
15502;SDS011;7853;52.186;5.948;2023-04-19T04:40:35;7.19;;;4.68;;
15502;SDS011;7853;52.186;5.948;2023-04-19T04:41:34;6.48;;;4.85;;
15502;SDS011;7853;52.186;5.948;2023-04-19T04:42:35;6.61;;;4.57;;
15502;SDS011;7853;52.186;5.948;2023-04-19T04:43:34;6.68;;;4.88;;
15502;SDS011;7853;52.186;5.948;2023-04-19T04:44:35;6.80;;;4.70;;
15502;SDS011;7853;52.186;5.948;2023-04-19T04:45:35;7.11;;;4.87;;
15502;SDS011;7853;52.186;5.948;2023-04-19T04:46:34;6.43;;;4.53;;
15502;SDS011;7853;52.186;5.948;2023-04-19T04:47:35;6.16;;;4.47;;
15502;SDS011;7853;52.186;5.948;2023-04-19T04:48:35;5.94;;;4.49;;
15502;SDS011;7853;52.186;5.948;2023-04-19T04:49:34;6.29;;;4.53;;
15502;SDS011;7853;52.186;5.948;2023-04-19T04:50:34;7.34;;;4.51;;
15502;SDS011;7853;52.186;5.948;2023-04-19T04:51:35;6.84;;;4.68;;
15502;SDS011;7853;52.186;5.948;2023-04-19T04:52:35;6.26;;;4.34;;
15502;SDS011;7853;52.186;5.948;2023-04-19T04:53:35;6.29;;;4.34;;
15502;SDS011;7853;52.186;5.948;2023-04-19T04:54:35;6.60;;;4.40;;
15502;SDS011;7853;52.186;5.948;2023-04-19T04:55:34;6.86;;;4.26;;
15502;SDS011;7853;52.186;5.948;2023-04-19T04:56:34;7.61;;;4.71;;
15502;SDS011;7853;52.186;5.948;2023-04-19T04:57:35;6.75;;;4.20;;
15502;SDS011;7853;52.186;5.948;2023-04-19T04:58:34;5.60;;;4.17;;
15502;SDS011;7853;52.186;5.948;2023-04-19T04:59:34;6.67;;;4.30;;
15502;SDS011;7853;52.186;5.948;2023-04-19T05:00:35;6.72;;;4.32;;
15502;SDS011;7853;52.186;5.948;2023-04-19T05:01:35;7.56;;;4.72;;
15502;SDS011;7853;52.186;5.948;2023-04-19T05:02:34;6.01;;;4.24;;
15502;SDS011;7853;52.186;5.948;2023-04-19T05:03:34;7.30;;;4.35;;
15502;SDS011;7853;52.186;5.948;2023-04-19T05:04:35;5.89;;;3.82;;
15502;SDS011;7853;52.186;5.948;2023-04-19T05:05:35;5.41;;;4.03;;
15502;SDS011;7853;52.186;5.948;2023-04-19T05:06:34;5.15;;;3.69;;
15502;SDS011;7853;52.186;5.948;2023-04-19T05:07:35;5.58;;;3.97;;
15502;SDS011;7853;52.186;5.948;2023-04-19T05:08:35;5.15;;;4.11;;
15502;SDS011;7853;52.186;5.948;2023-04-19T05:09:35;6.24;;;4.30;;
15502;SDS011;7853;52.186;5.948;2023-04-19T05:10:35;6.86;;;4.22;;
15502;SDS011;7853;52.186;5.948;2023-04-19T05:11:35;7.49;;;4.64;;
15502;SDS011;7853;52.186;5.948;2023-04-19T05:12:35;6.42;;;4.29;;
15502;SDS011;7853;52.186;5.948;2023-04-19T05:13:35;5.35;;;4.28;;
15502;SDS011;7853;52.186;5.948;2023-04-19T05:14:35;5.73;;;4.27;;
15502;SDS011;7853;52.186;5.948;2023-04-19T05:15:34;5.94;;;4.18;;
15502;SDS011;7853;52.186;5.948;2023-04-19T05:16:35;5.75;;;4.24;;
15502;SDS011;7853;52.186;5.948;2023-04-19T05:17:35;6.67;;;4.37;;
15502;SDS011;7853;52.186;5.948;2023-04-19T05:18:35;6.31;;;4.43;;
15502;SDS011;7853;52.186;5.948;2023-04-19T05:19:35;5.77;;;4.21;;
15502;SDS011;7853;52.186;5.948;2023-04-19T05:20:34;5.79;;;3.82;;
15502;SDS011;7853;52.186;5.948;2023-04-19T05:21:35;6.61;;;4.35;;
15502;SDS011;7853;52.186;5.948;2023-04-19T05:22:35;6.34;;;4.15;;
15502;SDS011;7853;52.186;5.948;2023-04-19T05:23:35;5.45;;;3.86;;
15502;SDS011;7853;52.186;5.948;2023-04-19T05:24:34;5.23;;;3.93;;
15502;SDS011;7853;52.186;5.948;2023-04-19T05:25:35;5.21;;;3.73;;
15502;SDS011;7853;52.186;5.948;2023-04-19T05:26:34;5.27;;;3.86;;
15502;SDS011;7853;52.186;5.948;2023-04-19T05:27:34;5.34;;;3.83;;
15502;SDS011;7853;52.186;5.948;2023-04-19T05:28:34;5.25;;;3.81;;
15502;SDS011;7853;52.186;5.948;2023-04-19T05:29:35;5.81;;;3.97;;
15502;SDS011;7853;52.186;5.948;2023-04-19T05:30:35;6.07;;;4.30;;
15502;SDS011;7853;52.186;5.948;2023-04-19T05:31:35;5.96;;;3.83;;
15502;SDS011;7853;52.186;5.948;2023-04-19T05:32:35;5.18;;;3.73;;
15502;SDS011;7853;52.186;5.948;2023-04-19T05:33:35;5.62;;;4.15;;
15502;SDS011;7853;52.186;5.948;2023-04-19T05:34:35;5.40;;;3.85;;
15502;SDS011;7853;52.186;5.948;2023-04-19T05:35:34;6.26;;;4.10;;
15502;SDS011;7853;52.186;5.948;2023-04-19T05:36:35;6.47;;;4.15;;
15502;SDS011;7853;52.186;5.948;2023-04-19T05:37:35;5.26;;;3.92;;
15502;SDS011;7853;52.186;5.948;2023-04-19T05:38:34;6.52;;;4.42;;
15502;SDS011;7853;52.186;5.948;2023-04-19T05:39:35;6.36;;;3.99;;
15502;SDS011;7853;52.186;5.948;2023-04-19T05:40:35;5.92;;;3.91;;
15502;SDS011;7853;52.186;5.948;2023-04-19T05:41:34;5.64;;;3.84;;
15502;SDS011;7853;52.186;5.948;2023-04-19T05:42:35;6.56;;;4.12;;
15502;SDS011;7853;52.186;5.948;2023-04-19T05:43:35;5.86;;;4.01;;
15502;SDS011;7853;52.186;5.948;2023-04-19T05:44:34;6.06;;;4.11;;
15502;SDS011;7853;52.186;5.948;2023-04-19T05:45:35;4.93;;;3.51;;
15502;SDS011;7853;52.186;5.948;2023-04-19T05:46:34;5.93;;;3.86;;
15502;SDS011;7853;52.186;5.948;2023-04-19T05:47:35;5.89;;;4.00;;
15502;SDS011;7853;52.186;5.948;2023-04-19T05:48:34;6.48;;;4.01;;
15502;SDS011;7853;52.186;5.948;2023-04-19T05:49:34;5.31;;;3.25;;
15502;SDS011;7853;52.186;5.948;2023-04-19T05:50:35;5.04;;;3.44;;
15502;SDS011;7853;52.186;5.948;2023-04-19T05:51:35;5.83;;;4.22;;
15502;SDS011;7853;52.186;5.948;2023-04-19T05:52:35;5.21;;;3.85;;
15502;SDS011;7853;52.186;5.948;2023-04-19T05:53:35;5.38;;;3.77;;
15502;SDS011;7853;52.186;5.948;2023-04-19T05:54:35;4.66;;;3.53;;
15502;SDS011;7853;52.186;5.948;2023-04-19T05:55:34;4.73;;;3.18;;
15502;SDS011;7853;52.186;5.948;2023-04-19T05:56:34;5.16;;;3.01;;
15502;SDS011;7853;52.186;5.948;2023-04-19T05:57:35;3.38;;;2.62;;
15502;SDS011;7853;52.186;5.948;2023-04-19T05:58:34;4.68;;;3.09;;
15502;SDS011;7853;52.186;5.948;2023-04-19T05:59:35;5.05;;;3.22;;
15502;SDS011;7853;52.186;5.948;2023-04-19T06:00:35;4.71;;;3.09;;
15502;SDS011;7853;52.186;5.948;2023-04-19T06:01:35;4.61;;;3.15;;
15502;SDS011;7853;52.186;5.948;2023-04-19T06:02:35;4.34;;;3.15;;
15502;SDS011;7853;52.186;5.948;2023-04-19T06:03:35;4.07;;;3.30;;
15502;SDS011;7853;52.186;5.948;2023-04-19T06:04:35;3.55;;;2.81;;
15502;SDS011;7853;52.186;5.948;2023-04-19T06:05:34;3.88;;;2.41;;
15502;SDS011;7853;52.186;5.948;2023-04-19T06:06:35;4.73;;;3.03;;
15502;SDS011;7853;52.186;5.948;2023-04-19T06:07:35;3.04;;;2.27;;